sensor_id;sensor_type;location;lat;lon;timestamp;P1;durP1;ratioP1;P2;durP2;ratioP2
2620;SDS011;1320;48.128;11.592;2022-11-15T00:00:16;4.70;;;2.80;;
2620;SDS011;1320;48.128;11.592;2022-11-15T00:02:42;3.70;;;2.75;;
2620;SDS011;1320;48.128;11.592;2022-11-15T00:05:07;3.37;;;2.30;;
2620;SDS011;1320;48.128;11.592;2022-11-15T00:07:33;3.87;;;3.00;;
2620;SDS011;1320;48.128;11.592;2022-11-15T00:09:59;4.30;;;2.93;;
2620;SDS011;1320;48.128;11.592;2022-11-15T00:12:24;2.43;;;2.13;;
2620;SDS011;1320;48.128;11.592;2022-11-15T00:14:51;3.30;;;2.90;;
2620;SDS011;1320;48.128;11.592;2022-11-15T00:17:17;3.90;;;3.20;;
2620;SDS011;1320;48.128;11.592;2022-11-15T00:19:43;2.63;;;2.40;;
2620;SDS011;1320;48.128;11.592;2022-11-15T00:22:08;4.40;;;3.00;;
2620;SDS011;1320;48.128;11.592;2022-11-15T00:24:34;3.77;;;2.43;;
2620;SDS011;1320;48.128;11.592;2022-11-15T00:26:59;2.37;;;2.17;;
2620;SDS011;1320;48.128;11.592;2022-11-15T00:29:25;3.30;;;2.43;;
2620;SDS011;1320;48.128;11.592;2022-11-15T00:31:51;3.00;;;2.20;;
2620;SDS011;1320;48.128;11.592;2022-11-15T00:34:18;5.35;;;2.67;;
2620;SDS011;1320;48.128;11.592;2022-11-15T00:36:43;5.80;;;3.05;;
2620;SDS011;1320;48.128;11.592;2022-11-15T00:39:09;3.10;;;2.10;;
2620;SDS011;1320;48.128;11.592;2022-11-15T00:41:35;4.00;;;2.20;;
2620;SDS011;1320;48.128;11.592;2022-11-15T00:44:00;6.53;;;2.70;;
2620;SDS011;1320;48.128;11.592;2022-11-15T00:46:26;4.53;;;2.23;;
2620;SDS011;1320;48.128;11.592;2022-11-15T00:48:52;3.37;;;2.80;;
2620;SDS011;1320;48.128;11.592;2022-11-15T00:51:17;2.47;;;1.80;;
2620;SDS011;1320;48.128;11.592;2022-11-15T00:53:43;4.33;;;2.07;;
2620;SDS011;1320;48.128;11.592;2022-11-15T00:56:08;3.60;;;2.43;;
2620;SDS011;1320;48.128;11.592;2022-11-15T00:58:34;3.90;;;2.80;;
2620;SDS011;1320;48.128;11.592;2022-11-15T01:01:10;4.00;;;2.67;;
2620;SDS011;1320;48.128;11.592;2022-11-15T01:03:37;2.70;;;2.08;;
2620;SDS011;1320;48.128;11.592;2022-11-15T01:06:04;3.42;;;1.95;;
2620;SDS011;1320;48.128;11.592;2022-11-15T01:08:31;3.33;;;2.60;;
2620;SDS011;1320;48.128;11.592;2022-11-15T01:11:03;2.50;;;2.10;;
2620;SDS011;1320;48.128;11.592;2022-11-15T01:13:31;3.95;;;1.88;;
2620;SDS011;1320;48.128;11.592;2022-11-15T01:15:58;3.85;;;2.38;;
2620;SDS011;1320;48.128;11.592;2022-11-15T01:18:30;4.78;;;2.70;;
2620;SDS011;1320;48.128;11.592;2022-11-15T01:20:55;1.73;;;1.57;;
2620;SDS011;1320;48.128;11.592;2022-11-15T01:23:21;4.57;;;2.33;;
2620;SDS011;1320;48.128;11.592;2022-11-15T01:25:47;2.80;;;2.30;;
2620;SDS011;1320;48.128;11.592;2022-11-15T01:28:12;2.80;;;2.00;;
2620;SDS011;1320;48.128;11.592;2022-11-15T01:30:38;3.10;;;2.03;;
2620;SDS011;1320;48.128;11.592;2022-11-15T01:33:04;3.37;;;1.83;;
2620;SDS011;1320;48.128;11.592;2022-11-15T01:35:29;2.60;;;1.53;;
2620;SDS011;1320;48.128;11.592;2022-11-15T01:37:55;2.13;;;1.80;;
2620;SDS011;1320;48.128;11.592;2022-11-15T01:40:21;2.43;;;1.80;;
2620;SDS011;1320;48.128;11.592;2022-11-15T01:42:46;2.00;;;1.80;;
2620;SDS011;1320;48.128;11.592;2022-11-15T01:45:13;4.00;;;1.90;;
2620;SDS011;1320;48.128;11.592;2022-11-15T01:47:40;2.00;;;1.83;;
2620;SDS011;1320;48.128;11.592;2022-11-15T01:50:14;3.47;;;2.10;;
2620;SDS011;1320;48.128;11.592;2022-11-15T01:52:43;2.85;;;2.17;;
2620;SDS011;1320;48.128;11.592;2022-11-15T01:55:09;2.37;;;2.17;;
2620;SDS011;1320;48.128;11.592;2022-11-15T01:57:39;3.45;;;2.33;;
2620;SDS011;1320;48.128;11.592;2022-11-15T02:00:09;3.08;;;1.88;;
2620;SDS011;1320;48.128;11.592;2022-11-15T02:02:36;2.67;;;2.05;;
2620;SDS011;1320;48.128;11.592;2022-11-15T02:05:03;2.90;;;2.60;;
2620;SDS011;1320;48.128;11.592;2022-11-15T02:07:29;2.22;;;1.65;;
2620;SDS011;1320;48.128;11.592;2022-11-15T02:10:01;1.77;;;1.50;;
2620;SDS011;1320;48.128;11.592;2022-11-15T02:12:35;3.55;;;2.22;;
2620;SDS011;1320;48.128;11.592;2022-11-15T02:15:02;4.10;;;1.80;;
2620;SDS011;1320;48.128;11.592;2022-11-15T02:28:57;2.83;;;2.33;;
2620;SDS011;1320;48.128;11.592;2022-11-15T02:35:01;2.17;;;1.38;;
2620;SDS011;1320;48.128;11.592;2022-11-15T02:37:03;2.08;;;1.67;;
2620;SDS011;1320;48.128;11.592;2022-11-15T02:42:42;2.20;;;1.60;;
2620;SDS011;1320;48.128;11.592;2022-11-15T02:45:35;2.08;;;1.60;;
2620;SDS011;1320;48.128;11.592;2022-11-15T02:48:05;2.60;;;1.70;;
2620;SDS011;1320;48.128;11.592;2022-11-15T02:50:32;2.33;;;1.67;;
2620;SDS011;1320;48.128;11.592;2022-11-15T02:52:58;2.50;;;1.85;;
2620;SDS011;1320;48.128;11.592;2022-11-15T02:55:28;2.87;;;1.73;;
2620;SDS011;1320;48.128;11.592;2022-11-15T03:00:29;3.05;;;1.88;;
2620;SDS011;1320;48.128;11.592;2022-11-15T03:08:17;2.70;;;2.03;;
2620;SDS011;1320;48.128;11.592;2022-11-15T03:16:38;2.15;;;1.60;;
2620;SDS011;1320;48.128;11.592;2022-11-15T03:19:30;2.97;;;2.38;;
2620;SDS011;1320;48.128;11.592;2022-11-15T03:22:02;3.30;;;1.70;;
2620;SDS011;1320;48.128;11.592;2022-11-15T03:24:31;2.75;;;1.90;;
2620;SDS011;1320;48.128;11.592;2022-11-15T03:27:00;1.77;;;1.40;;
2620;SDS011;1320;48.128;11.592;2022-11-15T03:29:30;5.82;;;1.70;;
2620;SDS011;1320;48.128;11.592;2022-11-15T03:32:01;2.22;;;1.88;;
2620;SDS011;1320;48.128;11.592;2022-11-15T03:34:35;2.58;;;1.80;;
2620;SDS011;1320;48.128;11.592;2022-11-15T03:37:06;2.13;;;1.70;;
2620;SDS011;1320;48.128;11.592;2022-11-15T03:39:33;1.80;;;1.70;;
2620;SDS011;1320;48.128;11.592;2022-11-15T03:45:08;2.22;;;2.03;;
2620;SDS011;1320;48.128;11.592;2022-11-15T03:47:57;2.53;;;1.90;;
2620;SDS011;1320;48.128;11.592;2022-11-15T03:50:29;2.13;;;1.60;;
2620;SDS011;1320;48.128;11.592;2022-11-15T03:52:55;1.90;;;1.63;;
2620;SDS011;1320;48.128;11.592;2022-11-15T03:55:22;1.88;;;1.63;;
2620;SDS011;1320;48.128;11.592;2022-11-15T03:57:48;4.00;;;2.00;;
2620;SDS011;1320;48.128;11.592;2022-11-15T04:00:16;3.10;;;1.85;;
2620;SDS011;1320;48.128;11.592;2022-11-15T04:02:41;2.63;;;1.80;;
2620;SDS011;1320;48.128;11.592;2022-11-15T04:05:07;2.30;;;1.80;;
2620;SDS011;1320;48.128;11.592;2022-11-15T04:07:33;2.25;;;1.75;;
2620;SDS011;1320;48.128;11.592;2022-11-15T04:09:59;2.47;;;1.97;;
2620;SDS011;1320;48.128;11.592;2022-11-15T04:12:37;2.47;;;1.90;;
2620;SDS011;1320;48.128;11.592;2022-11-15T04:15:09;2.05;;;1.40;;
2620;SDS011;1320;48.128;11.592;2022-11-15T04:20:14;2.97;;;2.03;;
2620;SDS011;1320;48.128;11.592;2022-11-15T04:22:59;1.90;;;1.48;;
2620;SDS011;1320;48.128;11.592;2022-11-15T04:25:44;2.20;;;1.33;;
2620;SDS011;1320;48.128;11.592;2022-11-15T04:28:11;2.47;;;1.80;;
2620;SDS011;1320;48.128;11.592;2022-11-15T04:30:37;2.10;;;1.38;;
2620;SDS011;1320;48.128;11.592;2022-11-15T04:33:02;2.33;;;1.60;;
2620;SDS011;1320;48.128;11.592;2022-11-15T04:35:28;2.03;;;1.50;;
2620;SDS011;1320;48.128;11.592;2022-11-15T04:37:55;1.98;;;1.50;;
2620;SDS011;1320;48.128;11.592;2022-11-15T04:40:21;3.55;;;2.10;;
2620;SDS011;1320;48.128;11.592;2022-11-15T04:42:47;2.03;;;1.77;;
2620;SDS011;1320;48.128;11.592;2022-11-15T04:45:12;3.73;;;1.80;;
2620;SDS011;1320;48.128;11.592;2022-11-15T04:47:38;2.43;;;2.17;;
2620;SDS011;1320;48.128;11.592;2022-11-15T04:50:04;1.70;;;1.53;;
2620;SDS011;1320;48.128;11.592;2022-11-15T04:52:30;2.85;;;2.40;;
2620;SDS011;1320;48.128;11.592;2022-11-15T04:54:56;2.10;;;1.37;;
2620;SDS011;1320;48.128;11.592;2022-11-15T04:57:21;2.10;;;1.30;;
2620;SDS011;1320;48.128;11.592;2022-11-15T04:59:47;2.13;;;1.43;;
2620;SDS011;1320;48.128;11.592;2022-11-15T05:02:13;2.33;;;2.07;;
2620;SDS011;1320;48.128;11.592;2022-11-15T05:04:38;2.43;;;1.93;;
2620;SDS011;1320;48.128;11.592;2022-11-15T05:07:04;3.50;;;3.10;;
2620;SDS011;1320;48.128;11.592;2022-11-15T05:09:30;1.37;;;1.27;;
2620;SDS011;1320;48.128;11.592;2022-11-15T05:11:55;3.07;;;1.70;;
2620;SDS011;1320;48.128;11.592;2022-11-15T05:14:21;6.10;;;1.70;;
2620;SDS011;1320;48.128;11.592;2022-11-15T05:16:46;2.40;;;1.80;;
2620;SDS011;1320;48.128;11.592;2022-11-15T05:19:12;3.10;;;1.80;;
2620;SDS011;1320;48.128;11.592;2022-11-15T05:21:38;1.50;;;1.00;;
2620;SDS011;1320;48.128;11.592;2022-11-15T05:24:04;1.90;;;1.30;;
2620;SDS011;1320;48.128;11.592;2022-11-15T05:26:30;2.95;;;1.77;;
2620;SDS011;1320;48.128;11.592;2022-11-15T05:28:56;1.80;;;1.50;;
2620;SDS011;1320;48.128;11.592;2022-11-15T05:31:23;1.70;;;1.45;;
2620;SDS011;1320;48.128;11.592;2022-11-15T05:33:50;2.08;;;1.80;;
2620;SDS011;1320;48.128;11.592;2022-11-15T05:36:38;2.35;;;1.30;;
2620;SDS011;1320;48.128;11.592;2022-11-15T05:39:07;2.35;;;1.42;;
2620;SDS011;1320;48.128;11.592;2022-11-15T05:41:35;12.73;;;2.75;;
2620;SDS011;1320;48.128;11.592;2022-11-15T05:44:05;3.15;;;1.55;;
2620;SDS011;1320;48.128;11.592;2022-11-15T05:46:34;1.92;;;1.50;;
2620;SDS011;1320;48.128;11.592;2022-11-15T05:49:02;1.65;;;1.40;;
2620;SDS011;1320;48.128;11.592;2022-11-15T05:51:29;1.80;;;1.40;;
2620;SDS011;1320;48.128;11.592;2022-11-15T05:53:56;2.87;;;2.43;;
2620;SDS011;1320;48.128;11.592;2022-11-15T05:56:23;2.13;;;1.35;;
2620;SDS011;1320;48.128;11.592;2022-11-15T05:58:49;2.20;;;1.30;;
2620;SDS011;1320;48.128;11.592;2022-11-15T06:01:16;2.20;;;1.60;;
2620;SDS011;1320;48.128;11.592;2022-11-15T06:03:42;2.37;;;1.93;;
2620;SDS011;1320;48.128;11.592;2022-11-15T06:06:07;3.00;;;1.57;;
2620;SDS011;1320;48.128;11.592;2022-11-15T06:08:33;3.03;;;2.20;;
2620;SDS011;1320;48.128;11.592;2022-11-15T06:11:02;1.43;;;1.33;;
2620;SDS011;1320;48.128;11.592;2022-11-15T06:13:29;2.60;;;1.85;;
2620;SDS011;1320;48.128;11.592;2022-11-15T06:15:55;1.87;;;1.57;;
2620;SDS011;1320;48.128;11.592;2022-11-15T06:18:21;2.25;;;1.30;;
2620;SDS011;1320;48.128;11.592;2022-11-15T06:20:47;1.97;;;1.80;;
2620;SDS011;1320;48.128;11.592;2022-11-15T06:23:12;2.07;;;1.57;;
2620;SDS011;1320;48.128;11.592;2022-11-15T06:25:38;4.20;;;2.03;;
2620;SDS011;1320;48.128;11.592;2022-11-15T06:28:04;1.90;;;1.50;;
2620;SDS011;1320;48.128;11.592;2022-11-15T06:30:29;2.37;;;1.50;;
2620;SDS011;1320;48.128;11.592;2022-11-15T06:32:59;3.20;;;2.20;;
2620;SDS011;1320;48.128;11.592;2022-11-15T06:35:29;1.58;;;1.38;;
2620;SDS011;1320;48.128;11.592;2022-11-15T06:37:56;3.15;;;2.00;;
2620;SDS011;1320;48.128;11.592;2022-11-15T06:40:26;3.08;;;1.95;;
2620;SDS011;1320;48.128;11.592;2022-11-15T06:42:57;1.40;;;1.30;;
2620;SDS011;1320;48.128;11.592;2022-11-15T06:45:24;2.30;;;2.10;;
2620;SDS011;1320;48.128;11.592;2022-11-15T06:47:50;1.97;;;1.77;;
2620;SDS011;1320;48.128;11.592;2022-11-15T06:50:15;2.03;;;1.73;;
2620;SDS011;1320;48.128;11.592;2022-11-15T06:52:41;1.90;;;1.80;;
2620;SDS011;1320;48.128;11.592;2022-11-15T06:55:07;3.30;;;1.87;;
2620;SDS011;1320;48.128;11.592;2022-11-15T06:57:33;1.65;;;1.50;;
2620;SDS011;1320;48.128;11.592;2022-11-15T06:59:59;2.30;;;1.93;;
2620;SDS011;1320;48.128;11.592;2022-11-15T07:02:25;3.30;;;1.73;;
2620;SDS011;1320;48.128;11.592;2022-11-15T07:04:50;4.10;;;1.93;;
2620;SDS011;1320;48.128;11.592;2022-11-15T07:07:18;2.10;;;1.80;;
2620;SDS011;1320;48.128;11.592;2022-11-15T07:09:44;3.20;;;1.87;;
2620;SDS011;1320;48.128;11.592;2022-11-15T07:12:10;2.40;;;1.57;;
2620;SDS011;1320;48.128;11.592;2022-11-15T07:14:35;1.50;;;1.20;;
2620;SDS011;1320;48.128;11.592;2022-11-15T07:17:04;2.30;;;1.60;;
2620;SDS011;1320;48.128;11.592;2022-11-15T07:19:30;1.48;;;1.38;;
2620;SDS011;1320;48.128;11.592;2022-11-15T07:21:56;3.38;;;1.65;;
2620;SDS011;1320;48.128;11.592;2022-11-15T07:24:22;1.33;;;1.23;;
2620;SDS011;1320;48.128;11.592;2022-11-15T07:26:47;2.23;;;1.90;;
2620;SDS011;1320;48.128;11.592;2022-11-15T07:29:13;2.97;;;2.33;;
2620;SDS011;1320;48.128;11.592;2022-11-15T07:31:39;2.30;;;1.73;;
2620;SDS011;1320;48.128;11.592;2022-11-15T07:34:04;2.17;;;1.70;;
2620;SDS011;1320;48.128;11.592;2022-11-15T07:36:30;2.53;;;1.77;;
2620;SDS011;1320;48.128;11.592;2022-11-15T07:38:56;3.50;;;2.07;;
2620;SDS011;1320;48.128;11.592;2022-11-15T07:41:21;1.57;;;1.47;;
2620;SDS011;1320;48.128;11.592;2022-11-15T07:43:48;2.30;;;1.50;;
2620;SDS011;1320;48.128;11.592;2022-11-15T07:46:16;1.90;;;1.63;;
2620;SDS011;1320;48.128;11.592;2022-11-15T07:48:42;2.40;;;2.20;;
2620;SDS011;1320;48.128;11.592;2022-11-15T07:51:10;3.10;;;2.47;;
2620;SDS011;1320;48.128;11.592;2022-11-15T07:53:37;3.25;;;2.28;;
2620;SDS011;1320;48.128;11.592;2022-11-15T07:56:05;6.73;;;2.10;;
2620;SDS011;1320;48.128;11.592;2022-11-15T07:58:36;2.17;;;1.65;;
2620;SDS011;1320;48.128;11.592;2022-11-15T08:01:02;3.05;;;2.10;;
2620;SDS011;1320;48.128;11.592;2022-11-15T08:03:29;4.35;;;2.05;;
2620;SDS011;1320;48.128;11.592;2022-11-15T08:05:54;2.77;;;2.47;;
2620;SDS011;1320;48.128;11.592;2022-11-15T08:08:20;2.80;;;2.00;;
2620;SDS011;1320;48.128;11.592;2022-11-15T08:10:45;1.80;;;1.57;;
2620;SDS011;1320;48.128;11.592;2022-11-15T08:13:12;5.20;;;2.53;;
2620;SDS011;1320;48.128;11.592;2022-11-15T08:15:38;3.08;;;2.60;;
2620;SDS011;1320;48.128;11.592;2022-11-15T08:18:05;2.30;;;1.90;;
2620;SDS011;1320;48.128;11.592;2022-11-15T08:20:34;3.77;;;2.90;;
2620;SDS011;1320;48.128;11.592;2022-11-15T08:23:01;2.07;;;1.87;;
2620;SDS011;1320;48.128;11.592;2022-11-15T08:25:29;3.47;;;2.70;;
2620;SDS011;1320;48.128;11.592;2022-11-15T08:27:58;5.50;;;3.17;;
2620;SDS011;1320;48.128;11.592;2022-11-15T08:30:25;4.27;;;2.57;;
2620;SDS011;1320;48.128;11.592;2022-11-15T08:32:52;2.80;;;2.47;;
2620;SDS011;1320;48.128;11.592;2022-11-15T08:35:19;3.63;;;2.10;;
2620;SDS011;1320;48.128;11.592;2022-11-15T08:37:53;2.93;;;2.20;;
2620;SDS011;1320;48.128;11.592;2022-11-15T08:40:19;5.60;;;3.30;;
2620;SDS011;1320;48.128;11.592;2022-11-15T08:42:46;4.43;;;3.07;;
2620;SDS011;1320;48.128;11.592;2022-11-15T08:45:15;3.83;;;2.87;;
2620;SDS011;1320;48.128;11.592;2022-11-15T08:47:41;4.40;;;2.77;;
2620;SDS011;1320;48.128;11.592;2022-11-15T08:50:07;4.13;;;2.30;;
2620;SDS011;1320;48.128;11.592;2022-11-15T08:52:33;3.57;;;2.90;;
2620;SDS011;1320;48.128;11.592;2022-11-15T08:54:59;3.17;;;2.03;;
2620;SDS011;1320;48.128;11.592;2022-11-15T08:57:28;3.93;;;2.50;;
2620;SDS011;1320;48.128;11.592;2022-11-15T08:59:57;4.70;;;2.53;;
2620;SDS011;1320;48.128;11.592;2022-11-15T09:02:22;3.83;;;2.60;;
2620;SDS011;1320;48.128;11.592;2022-11-15T09:04:48;2.60;;;2.00;;
2620;SDS011;1320;48.128;11.592;2022-11-15T09:07:14;5.43;;;2.90;;
2620;SDS011;1320;48.128;11.592;2022-11-15T09:09:40;4.23;;;2.30;;
2620;SDS011;1320;48.128;11.592;2022-11-15T09:12:06;3.30;;;2.40;;
2620;SDS011;1320;48.128;11.592;2022-11-15T09:14:33;3.53;;;2.53;;
2620;SDS011;1320;48.128;11.592;2022-11-15T09:16:59;2.70;;;2.10;;
2620;SDS011;1320;48.128;11.592;2022-11-15T09:19:25;4.83;;;2.40;;
2620;SDS011;1320;48.128;11.592;2022-11-15T09:21:50;5.33;;;2.80;;
2620;SDS011;1320;48.128;11.592;2022-11-15T09:24:16;3.10;;;2.80;;
2620;SDS011;1320;48.128;11.592;2022-11-15T09:26:42;4.27;;;2.63;;
2620;SDS011;1320;48.128;11.592;2022-11-15T09:29:09;4.43;;;2.93;;
2620;SDS011;1320;48.128;11.592;2022-11-15T09:31:34;2.87;;;2.37;;
2620;SDS011;1320;48.128;11.592;2022-11-15T09:34:00;3.37;;;2.20;;
2620;SDS011;1320;48.128;11.592;2022-11-15T09:36:26;5.73;;;2.90;;
2620;SDS011;1320;48.128;11.592;2022-11-15T09:38:51;4.90;;;2.70;;
2620;SDS011;1320;48.128;11.592;2022-11-15T09:41:21;2.57;;;2.30;;
2620;SDS011;1320;48.128;11.592;2022-11-15T09:49:57;4.80;;;2.30;;
2620;SDS011;1320;48.128;11.592;2022-11-15T09:52:25;2.23;;;1.77;;
2620;SDS011;1320;48.128;11.592;2022-11-15T09:54:51;2.23;;;1.80;;
2620;SDS011;1320;48.128;11.592;2022-11-15T10:05:15;5.93;;;2.00;;
2620;SDS011;1320;48.128;11.592;2022-11-15T10:07:46;3.03;;;2.57;;
2620;SDS011;1320;48.128;11.592;2022-11-15T10:10:20;2.47;;;2.27;;
2620;SDS011;1320;48.128;11.592;2022-11-15T10:12:52;2.93;;;1.90;;
2620;SDS011;1320;48.128;11.592;2022-11-15T10:15:18;2.53;;;2.10;;
2620;SDS011;1320;48.128;11.592;2022-11-15T10:20:32;3.50;;;1.70;;
2620;SDS011;1320;48.128;11.592;2022-11-15T10:23:10;2.60;;;1.87;;
2620;SDS011;1320;48.128;11.592;2022-11-15T10:25:38;2.67;;;1.80;;
2620;SDS011;1320;48.128;11.592;2022-11-15T10:28:21;3.33;;;1.77;;
2620;SDS011;1320;48.128;11.592;2022-11-15T10:30:51;3.20;;;2.40;;
2620;SDS011;1320;48.128;11.592;2022-11-15T10:43:42;1.83;;;1.60;;
2620;SDS011;1320;48.128;11.592;2022-11-15T10:46:19;1.70;;;1.50;;
2620;SDS011;1320;48.128;11.592;2022-11-15T10:48:46;2.40;;;1.60;;
2620;SDS011;1320;48.128;11.592;2022-11-15T10:51:25;1.93;;;1.50;;
2620;SDS011;1320;48.128;11.592;2022-11-15T10:53:54;4.37;;;1.80;;
2620;SDS011;1320;48.128;11.592;2022-11-15T10:56:22;2.00;;;1.57;;
2620;SDS011;1320;48.128;11.592;2022-11-15T10:58:52;3.00;;;2.00;;
2620;SDS011;1320;48.128;11.592;2022-11-15T11:01:24;2.50;;;1.60;;
2620;SDS011;1320;48.128;11.592;2022-11-15T11:06:27;4.90;;;2.47;;
2620;SDS011;1320;48.128;11.592;2022-11-15T11:09:02;3.70;;;2.67;;
2620;SDS011;1320;48.128;11.592;2022-11-15T11:11:45;3.50;;;2.07;;
2620;SDS011;1320;48.128;11.592;2022-11-15T11:14:26;2.70;;;1.80;;
2620;SDS011;1320;48.128;11.592;2022-11-15T11:19:39;2.87;;;1.60;;
2620;SDS011;1320;48.128;11.592;2022-11-15T11:25:16;2.57;;;1.80;;
2620;SDS011;1320;48.128;11.592;2022-11-15T11:39:38;2.23;;;1.57;;
2620;SDS011;1320;48.128;11.592;2022-11-15T11:42:14;2.20;;;1.80;;
2620;SDS011;1320;48.128;11.592;2022-11-15T11:47:59;2.03;;;1.50;;
2620;SDS011;1320;48.128;11.592;2022-11-15T11:51:01;3.50;;;2.93;;
2620;SDS011;1320;48.128;11.592;2022-11-15T11:56:58;3.30;;;2.40;;
2620;SDS011;1320;48.128;11.592;2022-11-15T12:01:56;3.90;;;3.17;;
2620;SDS011;1320;48.128;11.592;2022-11-15T12:10:05;2.37;;;1.87;;
2620;SDS011;1320;48.128;11.592;2022-11-15T12:16:00;3.70;;;1.90;;
2620;SDS011;1320;48.128;11.592;2022-11-15T12:18:35;3.00;;;1.97;;
2620;SDS011;1320;48.128;11.592;2022-11-15T12:21:04;2.47;;;1.37;;
2620;SDS011;1320;48.128;11.592;2022-11-15T12:23:43;2.43;;;1.77;;
2620;SDS011;1320;48.128;11.592;2022-11-15T12:26:26;4.37;;;2.30;;
2620;SDS011;1320;48.128;11.592;2022-11-15T12:29:02;5.60;;;2.53;;
2620;SDS011;1320;48.128;11.592;2022-11-15T12:34:04;3.00;;;1.80;;
2620;SDS011;1320;48.128;11.592;2022-11-15T12:36:42;2.00;;;1.67;;
2620;SDS011;1320;48.128;11.592;2022-11-15T12:39:12;2.80;;;1.43;;
2620;SDS011;1320;48.128;11.592;2022-11-15T12:41:40;3.90;;;1.77;;
2620;SDS011;1320;48.128;11.592;2022-11-15T12:47:22;2.43;;;2.13;;
2620;SDS011;1320;48.128;11.592;2022-11-15T12:49:49;1.90;;;1.67;;
2620;SDS011;1320;48.128;11.592;2022-11-15T12:52:15;5.80;;;1.57;;
2620;SDS011;1320;48.128;11.592;2022-11-15T12:59:49;2.60;;;1.80;;
2620;SDS011;1320;48.128;11.592;2022-11-15T13:02:19;3.60;;;1.90;;
2620;SDS011;1320;48.128;11.592;2022-11-15T13:04:47;2.90;;;1.90;;
2620;SDS011;1320;48.128;11.592;2022-11-15T13:13:02;2.90;;;2.03;;
2620;SDS011;1320;48.128;11.592;2022-11-15T13:18:33;3.20;;;2.10;;
2620;SDS011;1320;48.128;11.592;2022-11-15T13:21:01;2.70;;;1.87;;
2620;SDS011;1320;48.128;11.592;2022-11-15T13:23:51;2.00;;;1.60;;
2620;SDS011;1320;48.128;11.592;2022-11-15T13:26:18;3.20;;;1.60;;
2620;SDS011;1320;48.128;11.592;2022-11-15T13:28:46;7.00;;;1.70;;
2620;SDS011;1320;48.128;11.592;2022-11-15T13:36:49;2.30;;;1.70;;
2620;SDS011;1320;48.128;11.592;2022-11-15T13:39:30;2.60;;;2.20;;
2620;SDS011;1320;48.128;11.592;2022-11-15T13:41:57;2.53;;;1.77;;
2620;SDS011;1320;48.128;11.592;2022-11-15T13:44:27;2.80;;;2.17;;
2620;SDS011;1320;48.128;11.592;2022-11-15T13:47:12;3.10;;;2.23;;
2620;SDS011;1320;48.128;11.592;2022-11-15T13:49:40;3.50;;;2.07;;
2620;SDS011;1320;48.128;11.592;2022-11-15T13:52:07;2.87;;;1.90;;
2620;SDS011;1320;48.128;11.592;2022-11-15T13:57:22;1.80;;;1.37;;
2620;SDS011;1320;48.128;11.592;2022-11-15T13:59:49;1.90;;;1.60;;
2620;SDS011;1320;48.128;11.592;2022-11-15T14:02:18;2.40;;;2.13;;
2620;SDS011;1320;48.128;11.592;2022-11-15T14:05:35;6.33;;;3.53;;
2620;SDS011;1320;48.128;11.592;2022-11-15T14:07:58;3.80;;;2.80;;
2620;SDS011;1320;48.128;11.592;2022-11-15T14:10:37;4.40;;;2.40;;
2620;SDS011;1320;48.128;11.592;2022-11-15T14:13:03;3.57;;;1.87;;
2620;SDS011;1320;48.128;11.592;2022-11-15T14:15:36;2.57;;;2.00;;
2620;SDS011;1320;48.128;11.592;2022-11-15T14:18:03;2.00;;;1.60;;
2620;SDS011;1320;48.128;11.592;2022-11-15T14:20:32;3.67;;;2.00;;
2620;SDS011;1320;48.128;11.592;2022-11-15T14:22:59;2.80;;;2.13;;
2620;SDS011;1320;48.128;11.592;2022-11-15T14:25:27;2.57;;;2.10;;
2620;SDS011;1320;48.128;11.592;2022-11-15T14:28:08;2.40;;;2.20;;
2620;SDS011;1320;48.128;11.592;2022-11-15T14:31:04;3.90;;;2.40;;
2620;SDS011;1320;48.128;11.592;2022-11-15T14:33:36;2.90;;;1.90;;
2620;SDS011;1320;48.128;11.592;2022-11-15T14:36:14;2.43;;;1.80;;
2620;SDS011;1320;48.128;11.592;2022-11-15T14:38:41;2.87;;;2.00;;
2620;SDS011;1320;48.128;11.592;2022-11-15T14:41:17;3.83;;;2.50;;
2620;SDS011;1320;48.128;11.592;2022-11-15T14:43:52;3.40;;;2.07;;
2620;SDS011;1320;48.128;11.592;2022-11-15T14:46:18;2.60;;;2.00;;
2620;SDS011;1320;48.128;11.592;2022-11-15T14:48:44;3.07;;;2.10;;
2620;SDS011;1320;48.128;11.592;2022-11-15T14:51:14;4.47;;;2.23;;
2620;SDS011;1320;48.128;11.592;2022-11-15T14:53:42;2.50;;;2.13;;
2620;SDS011;1320;48.128;11.592;2022-11-15T14:56:09;3.30;;;2.10;;
2620;SDS011;1320;48.128;11.592;2022-11-15T14:58:36;3.37;;;1.90;;
2620;SDS011;1320;48.128;11.592;2022-11-15T15:01:24;2.60;;;2.10;;
2620;SDS011;1320;48.128;11.592;2022-11-15T15:03:50;2.23;;;1.80;;
2620;SDS011;1320;48.128;11.592;2022-11-15T15:06:17;3.17;;;2.13;;
2620;SDS011;1320;48.128;11.592;2022-11-15T15:08:43;3.47;;;1.87;;
2620;SDS011;1320;48.128;11.592;2022-11-15T15:11:21;2.93;;;1.47;;
2620;SDS011;1320;48.128;11.592;2022-11-15T15:13:49;2.20;;;2.00;;
2620;SDS011;1320;48.128;11.592;2022-11-15T15:16:15;2.80;;;2.00;;
2620;SDS011;1320;48.128;11.592;2022-11-15T15:18:41;3.30;;;2.90;;
2620;SDS011;1320;48.128;11.592;2022-11-15T15:21:23;5.60;;;2.80;;
2620;SDS011;1320;48.128;11.592;2022-11-15T15:23:50;3.27;;;2.70;;
2620;SDS011;1320;48.128;11.592;2022-11-15T15:26:18;4.10;;;2.80;;
2620;SDS011;1320;48.128;11.592;2022-11-15T15:28:44;4.00;;;2.93;;
2620;SDS011;1320;48.128;11.592;2022-11-15T15:31:10;2.80;;;2.53;;
2620;SDS011;1320;48.128;11.592;2022-11-15T15:33:36;4.93;;;3.17;;
2620;SDS011;1320;48.128;11.592;2022-11-15T15:36:02;3.40;;;2.83;;
2620;SDS011;1320;48.128;11.592;2022-11-15T15:38:28;4.47;;;3.23;;
2620;SDS011;1320;48.128;11.592;2022-11-15T15:40:54;4.07;;;3.03;;
2620;SDS011;1320;48.128;11.592;2022-11-15T15:43:20;4.80;;;4.17;;
2620;SDS011;1320;48.128;11.592;2022-11-15T15:45:46;7.73;;;3.23;;
2620;SDS011;1320;48.128;11.592;2022-11-15T15:48:12;7.37;;;4.10;;
2620;SDS011;1320;48.128;11.592;2022-11-15T15:50:40;4.23;;;3.60;;
2620;SDS011;1320;48.128;11.592;2022-11-15T15:53:07;6.20;;;4.20;;
2620;SDS011;1320;48.128;11.592;2022-11-15T15:55:35;7.53;;;4.23;;
2620;SDS011;1320;48.128;11.592;2022-11-15T15:58:01;4.13;;;3.73;;
2620;SDS011;1320;48.128;11.592;2022-11-15T16:00:27;6.50;;;4.23;;
2620;SDS011;1320;48.128;11.592;2022-11-15T16:02:53;6.07;;;4.00;;
2620;SDS011;1320;48.128;11.592;2022-11-15T16:05:19;8.33;;;4.40;;
2620;SDS011;1320;48.128;11.592;2022-11-15T16:07:46;6.40;;;4.57;;
2620;SDS011;1320;48.128;11.592;2022-11-15T16:10:17;5.13;;;4.03;;
2620;SDS011;1320;48.128;11.592;2022-11-15T16:12:45;3.97;;;3.40;;
2620;SDS011;1320;48.128;11.592;2022-11-15T16:15:11;8.03;;;4.80;;
2620;SDS011;1320;48.128;11.592;2022-11-15T16:17:38;5.37;;;4.23;;
2620;SDS011;1320;48.128;11.592;2022-11-15T16:20:08;5.90;;;4.70;;
2620;SDS011;1320;48.128;11.592;2022-11-15T16:22:47;4.40;;;3.40;;
2620;SDS011;1320;48.128;11.592;2022-11-15T16:25:13;4.17;;;3.50;;
2620;SDS011;1320;48.128;11.592;2022-11-15T16:27:39;4.37;;;3.93;;
2620;SDS011;1320;48.128;11.592;2022-11-15T16:30:12;4.37;;;3.87;;
2620;SDS011;1320;48.128;11.592;2022-11-15T16:32:40;5.07;;;4.27;;
2620;SDS011;1320;48.128;11.592;2022-11-15T16:35:06;5.47;;;3.13;;
2620;SDS011;1320;48.128;11.592;2022-11-15T16:37:35;5.17;;;3.37;;
2620;SDS011;1320;48.128;11.592;2022-11-15T16:40:01;6.63;;;4.13;;
2620;SDS011;1320;48.128;11.592;2022-11-15T16:42:27;6.27;;;4.63;;
2620;SDS011;1320;48.128;11.592;2022-11-15T16:44:52;5.07;;;3.40;;
2620;SDS011;1320;48.128;11.592;2022-11-15T16:47:18;5.97;;;3.90;;
2620;SDS011;1320;48.128;11.592;2022-11-15T16:49:44;5.23;;;3.57;;
2620;SDS011;1320;48.128;11.592;2022-11-15T16:52:11;4.30;;;3.77;;
2620;SDS011;1320;48.128;11.592;2022-11-15T16:54:37;7.10;;;4.37;;
2620;SDS011;1320;48.128;11.592;2022-11-15T16:57:02;5.80;;;4.13;;
2620;SDS011;1320;48.128;11.592;2022-11-15T16:59:28;7.93;;;4.00;;
2620;SDS011;1320;48.128;11.592;2022-11-15T17:01:55;4.50;;;3.50;;
2620;SDS011;1320;48.128;11.592;2022-11-15T17:04:21;5.20;;;4.30;;
2620;SDS011;1320;48.128;11.592;2022-11-15T17:06:47;6.50;;;5.03;;
2620;SDS011;1320;48.128;11.592;2022-11-15T17:09:17;7.13;;;5.17;;
2620;SDS011;1320;48.128;11.592;2022-11-15T17:11:50;7.43;;;6.00;;
2620;SDS011;1320;48.128;11.592;2022-11-15T17:14:16;6.77;;;5.10;;
2620;SDS011;1320;48.128;11.592;2022-11-15T17:16:42;8.97;;;5.83;;
2620;SDS011;1320;48.128;11.592;2022-11-15T17:19:15;9.70;;;6.30;;